sensor_id;sensor_type;location;lat;lon;timestamp;P1;durP1;ratioP1;P2;durP2;ratioP2
66966;SDS011;53900;51.468;-2.586;2023-12-20T00:00:34;10.50;;;1.92;;
66966;SDS011;53900;51.468;-2.586;2023-12-20T00:02:59;12.82;;;2.13;;
66966;SDS011;53900;51.468;-2.586;2023-12-20T00:05:24;21.10;;;2.45;;
66966;SDS011;53900;51.468;-2.586;2023-12-20T00:07:49;15.63;;;2.55;;
66966;SDS011;53900;51.468;-2.586;2023-12-20T00:10:15;11.30;;;1.83;;
66966;SDS011;53900;51.468;-2.586;2023-12-20T00:12:40;13.27;;;2.20;;
66966;SDS011;53900;51.468;-2.586;2023-12-20T00:15:06;18.88;;;2.47;;
66966;SDS011;53900;51.468;-2.586;2023-12-20T00:17:31;14.55;;;2.03;;
66966;SDS011;53900;51.468;-2.586;2023-12-20T00:19:57;9.32;;;1.65;;
66966;SDS011;53900;51.468;-2.586;2023-12-20T00:22:22;19.65;;;2.90;;
66966;SDS011;53900;51.468;-2.586;2023-12-20T00:24:47;18.85;;;2.45;;
66966;SDS011;53900;51.468;-2.586;2023-12-20T00:27:12;11.50;;;1.70;;
66966;SDS011;53900;51.468;-2.586;2023-12-20T00:29:37;20.40;;;2.35;;
66966;SDS011;53900;51.468;-2.586;2023-12-20T00:32:03;17.10;;;2.50;;
66966;SDS011;53900;51.468;-2.586;2023-12-20T00:34:28;13.80;;;2.47;;
66966;SDS011;53900;51.468;-2.586;2023-12-20T00:36:53;14.75;;;2.53;;
66966;SDS011;53900;51.468;-2.586;2023-12-20T00:39:19;11.32;;;2.05;;
66966;SDS011;53900;51.468;-2.586;2023-12-20T00:41:45;16.17;;;2.10;;
66966;SDS011;53900;51.468;-2.586;2023-12-20T00:44:10;8.25;;;1.60;;
66966;SDS011;53900;51.468;-2.586;2023-12-20T00:46:35;11.45;;;2.15;;
66966;SDS011;53900;51.468;-2.586;2023-12-20T00:49:00;11.68;;;2.20;;
66966;SDS011;53900;51.468;-2.586;2023-12-20T00:51:26;12.80;;;2.05;;
66966;SDS011;53900;51.468;-2.586;2023-12-20T00:53:51;7.32;;;1.92;;
66966;SDS011;53900;51.468;-2.586;2023-12-20T00:56:19;16.75;;;2.35;;
66966;SDS011;53900;51.468;-2.586;2023-12-20T00:58:45;12.10;;;3.50;;
66966;SDS011;53900;51.468;-2.586;2023-12-20T01:01:10;15.23;;;2.58;;
66966;SDS011;53900;51.468;-2.586;2023-12-20T01:03:35;9.02;;;2.00;;
66966;SDS011;53900;51.468;-2.586;2023-12-20T01:06:01;10.63;;;1.98;;
66966;SDS011;53900;51.468;-2.586;2023-12-20T01:08:26;11.32;;;2.10;;
66966;SDS011;53900;51.468;-2.586;2023-12-20T01:10:51;16.85;;;2.42;;
66966;SDS011;53900;51.468;-2.586;2023-12-20T01:13:16;11.73;;;1.90;;
66966;SDS011;53900;51.468;-2.586;2023-12-20T01:15:42;14.15;;;2.42;;
66966;SDS011;53900;51.468;-2.586;2023-12-20T01:18:07;15.27;;;2.22;;
66966;SDS011;53900;51.468;-2.586;2023-12-20T01:20:32;6.63;;;2.22;;
66966;SDS011;53900;51.468;-2.586;2023-12-20T01:22:57;11.38;;;2.05;;
66966;SDS011;53900;51.468;-2.586;2023-12-20T01:25:22;18.60;;;3.05;;
66966;SDS011;53900;51.468;-2.586;2023-12-20T01:27:48;13.20;;;2.97;;
66966;SDS011;53900;51.468;-2.586;2023-12-20T01:30:13;15.05;;;2.67;;
66966;SDS011;53900;51.468;-2.586;2023-12-20T01:32:39;19.95;;;3.20;;
66966;SDS011;53900;51.468;-2.586;2023-12-20T01:35:04;14.93;;;2.70;;
66966;SDS011;53900;51.468;-2.586;2023-12-20T01:37:29;14.30;;;2.22;;
66966;SDS011;53900;51.468;-2.586;2023-12-20T01:39:54;10.30;;;2.35;;
66966;SDS011;53900;51.468;-2.586;2023-12-20T01:42:19;11.45;;;2.20;;
66966;SDS011;53900;51.468;-2.586;2023-12-20T01:44:44;15.23;;;2.10;;
66966;SDS011;53900;51.468;-2.586;2023-12-20T01:47:10;14.75;;;2.10;;
66966;SDS011;53900;51.468;-2.586;2023-12-20T01:49:35;14.75;;;2.13;;
66966;SDS011;53900;51.468;-2.586;2023-12-20T01:52:00;18.52;;;2.90;;
66966;SDS011;53900;51.468;-2.586;2023-12-20T01:54:25;19.80;;;2.55;;
66966;SDS011;53900;51.468;-2.586;2023-12-20T01:56:51;17.17;;;2.53;;
66966;SDS011;53900;51.468;-2.586;2023-12-20T01:59:17;7.50;;;1.88;;
66966;SDS011;53900;51.468;-2.586;2023-12-20T02:01:42;9.13;;;1.77;;
66966;SDS011;53900;51.468;-2.586;2023-12-20T02:04:08;7.50;;;1.65;;
66966;SDS011;53900;51.468;-2.586;2023-12-20T02:06:33;13.95;;;2.28;;
66966;SDS011;53900;51.468;-2.586;2023-12-20T02:08:58;16.40;;;2.17;;
66966;SDS011;53900;51.468;-2.586;2023-12-20T02:11:24;17.95;;;2.28;;
66966;SDS011;53900;51.468;-2.586;2023-12-20T02:13:50;12.50;;;1.90;;
66966;SDS011;53900;51.468;-2.586;2023-12-20T02:16:15;13.20;;;1.73;;
66966;SDS011;53900;51.468;-2.586;2023-12-20T02:18:41;12.75;;;1.95;;
66966;SDS011;53900;51.468;-2.586;2023-12-20T02:21:07;9.50;;;1.92;;
66966;SDS011;53900;51.468;-2.586;2023-12-20T02:23:34;14.40;;;2.03;;
66966;SDS011;53900;51.468;-2.586;2023-12-20T02:25:59;12.18;;;2.55;;
66966;SDS011;53900;51.468;-2.586;2023-12-20T02:28:24;10.27;;;2.10;;
66966;SDS011;53900;51.468;-2.586;2023-12-20T02:30:49;18.40;;;2.25;;
66966;SDS011;53900;51.468;-2.586;2023-12-20T02:33:15;10.48;;;1.88;;
66966;SDS011;53900;51.468;-2.586;2023-12-20T02:35:40;8.77;;;1.75;;
66966;SDS011;53900;51.468;-2.586;2023-12-20T02:38:05;13.63;;;2.00;;
66966;SDS011;53900;51.468;-2.586;2023-12-20T02:40:30;11.02;;;1.90;;
66966;SDS011;53900;51.468;-2.586;2023-12-20T02:42:56;12.23;;;1.80;;
66966;SDS011;53900;51.468;-2.586;2023-12-20T02:45:21;17.83;;;2.45;;
66966;SDS011;53900;51.468;-2.586;2023-12-20T02:47:46;12.13;;;2.03;;
66966;SDS011;53900;51.468;-2.586;2023-12-20T02:50:11;15.75;;;2.45;;
66966;SDS011;53900;51.468;-2.586;2023-12-20T02:52:36;19.08;;;2.53;;
66966;SDS011;53900;51.468;-2.586;2023-12-20T02:55:02;14.30;;;2.15;;
66966;SDS011;53900;51.468;-2.586;2023-12-20T02:57:27;11.20;;;2.00;;
66966;SDS011;53900;51.468;-2.586;2023-12-20T02:59:52;16.27;;;2.20;;
66966;SDS011;53900;51.468;-2.586;2023-12-20T03:02:17;15.63;;;2.45;;
66966;SDS011;53900;51.468;-2.586;2023-12-20T03:04:42;13.30;;;2.88;;
66966;SDS011;53900;51.468;-2.586;2023-12-20T03:07:08;12.93;;;2.30;;
66966;SDS011;53900;51.468;-2.586;2023-12-20T03:09:33;10.95;;;1.90;;
66966;SDS011;53900;51.468;-2.586;2023-12-20T03:11:58;15.02;;;2.38;;
66966;SDS011;53900;51.468;-2.586;2023-12-20T03:14:23;13.60;;;2.15;;
66966;SDS011;53900;51.468;-2.586;2023-12-20T03:16:49;10.90;;;1.90;;
66966;SDS011;53900;51.468;-2.586;2023-12-20T03:19:14;15.23;;;2.40;;
66966;SDS011;53900;51.468;-2.586;2023-12-20T03:21:40;17.80;;;1.95;;
66966;SDS011;53900;51.468;-2.586;2023-12-20T03:24:05;20.40;;;2.70;;
66966;SDS011;53900;51.468;-2.586;2023-12-20T03:26:30;14.88;;;2.75;;
66966;SDS011;53900;51.468;-2.586;2023-12-20T03:28:55;13.68;;;2.22;;
66966;SDS011;53900;51.468;-2.586;2023-12-20T03:31:20;14.38;;;2.15;;
66966;SDS011;53900;51.468;-2.586;2023-12-20T03:33:46;15.57;;;2.45;;
66966;SDS011;53900;51.468;-2.586;2023-12-20T03:36:12;17.35;;;2.72;;
66966;SDS011;53900;51.468;-2.586;2023-12-20T03:38:37;13.98;;;2.63;;
66966;SDS011;53900;51.468;-2.586;2023-12-20T03:41:02;17.10;;;2.75;;
66966;SDS011;53900;51.468;-2.586;2023-12-20T03:43:27;19.83;;;2.63;;
66966;SDS011;53900;51.468;-2.586;2023-12-20T03:45:52;23.52;;;3.28;;
66966;SDS011;53900;51.468;-2.586;2023-12-20T03:48:18;20.95;;;3.30;;
66966;SDS011;53900;51.468;-2.586;2023-12-20T03:50:43;21.27;;;3.15;;
66966;SDS011;53900;51.468;-2.586;2023-12-20T03:53:08;12.52;;;2.95;;
66966;SDS011;53900;51.468;-2.586;2023-12-20T03:55:33;16.27;;;2.45;;
66966;SDS011;53900;51.468;-2.586;2023-12-20T03:57:58;21.90;;;2.42;;
66966;SDS011;53900;51.468;-2.586;2023-12-20T04:00:24;11.82;;;2.13;;
66966;SDS011;53900;51.468;-2.586;2023-12-20T04:02:49;9.32;;;1.83;;
66966;SDS011;53900;51.468;-2.586;2023-12-20T04:05:14;9.52;;;1.88;;
66966;SDS011;53900;51.468;-2.586;2023-12-20T04:07:39;14.05;;;2.15;;
66966;SDS011;53900;51.468;-2.586;2023-12-20T04:10:05;11.35;;;2.25;;
66966;SDS011;53900;51.468;-2.586;2023-12-20T04:12:30;15.32;;;1.90;;
66966;SDS011;53900;51.468;-2.586;2023-12-20T04:14:56;18.65;;;2.17;;
66966;SDS011;53900;51.468;-2.586;2023-12-20T04:17:21;14.40;;;2.20;;
66966;SDS011;53900;51.468;-2.586;2023-12-20T04:19:48;15.15;;;2.40;;
66966;SDS011;53900;51.468;-2.586;2023-12-20T04:22:13;12.27;;;1.73;;
66966;SDS011;53900;51.468;-2.586;2023-12-20T04:24:38;13.68;;;2.35;;
66966;SDS011;53900;51.468;-2.586;2023-12-20T04:27:04;18.45;;;2.33;;
66966;SDS011;53900;51.468;-2.586;2023-12-20T04:29:29;18.98;;;2.25;;
66966;SDS011;53900;51.468;-2.586;2023-12-20T04:31:54;14.27;;;2.35;;
66966;SDS011;53900;51.468;-2.586;2023-12-20T04:34:19;26.15;;;3.25;;
66966;SDS011;53900;51.468;-2.586;2023-12-20T04:36:45;16.42;;;2.85;;
66966;SDS011;53900;51.468;-2.586;2023-12-20T04:39:11;18.55;;;2.90;;
66966;SDS011;53900;51.468;-2.586;2023-12-20T04:41:36;12.15;;;1.95;;
66966;SDS011;53900;51.468;-2.586;2023-12-20T04:44:01;16.52;;;2.30;;
66966;SDS011;53900;51.468;-2.586;2023-12-20T04:46:27;19.35;;;2.88;;
66966;SDS011;53900;51.468;-2.586;2023-12-20T04:48:52;13.95;;;2.38;;
66966;SDS011;53900;51.468;-2.586;2023-12-20T04:51:17;14.82;;;2.50;;
66966;SDS011;53900;51.468;-2.586;2023-12-20T04:53:43;16.63;;;2.33;;
66966;SDS011;53900;51.468;-2.586;2023-12-20T04:56:08;20.05;;;2.58;;
66966;SDS011;53900;51.468;-2.586;2023-12-20T04:58:33;15.43;;;2.75;;
66966;SDS011;53900;51.468;-2.586;2023-12-20T05:00:58;19.38;;;3.00;;
66966;SDS011;53900;51.468;-2.586;2023-12-20T05:03:24;12.98;;;1.83;;
66966;SDS011;53900;51.468;-2.586;2023-12-20T05:05:49;21.15;;;2.30;;
66966;SDS011;53900;51.468;-2.586;2023-12-20T05:08:14;14.30;;;2.30;;
66966;SDS011;53900;51.468;-2.586;2023-12-20T05:10:39;18.92;;;2.45;;
66966;SDS011;53900;51.468;-2.586;2023-12-20T05:13:05;14.43;;;1.77;;
66966;SDS011;53900;51.468;-2.586;2023-12-20T05:15:30;21.88;;;2.63;;
66966;SDS011;53900;51.468;-2.586;2023-12-20T05:17:55;11.73;;;2.08;;
66966;SDS011;53900;51.468;-2.586;2023-12-20T05:20:21;13.82;;;1.98;;
66966;SDS011;53900;51.468;-2.586;2023-12-20T05:22:46;10.18;;;2.13;;
66966;SDS011;53900;51.468;-2.586;2023-12-20T05:25:12;22.48;;;2.42;;
66966;SDS011;53900;51.468;-2.586;2023-12-20T05:27:37;14.65;;;2.28;;
66966;SDS011;53900;51.468;-2.586;2023-12-20T05:30:02;24.85;;;2.10;;
66966;SDS011;53900;51.468;-2.586;2023-12-20T05:32:29;22.88;;;2.60;;
66966;SDS011;53900;51.468;-2.586;2023-12-20T05:34:54;13.93;;;1.88;;
66966;SDS011;53900;51.468;-2.586;2023-12-20T05:37:19;12.75;;;2.42;;
66966;SDS011;53900;51.468;-2.586;2023-12-20T05:39:45;18.73;;;2.55;;
66966;SDS011;53900;51.468;-2.586;2023-12-20T05:42:10;9.38;;;2.13;;
66966;SDS011;53900;51.468;-2.586;2023-12-20T05:44:35;22.60;;;2.95;;
66966;SDS011;53900;51.468;-2.586;2023-12-20T05:47:01;14.65;;;2.25;;
66966;SDS011;53900;51.468;-2.586;2023-12-20T05:49:26;22.25;;;2.58;;
66966;SDS011;53900;51.468;-2.586;2023-12-20T05:51:51;22.13;;;3.15;;
66966;SDS011;53900;51.468;-2.586;2023-12-20T05:54:17;8.23;;;2.15;;
66966;SDS011;53900;51.468;-2.586;2023-12-20T05:56:42;13.95;;;2.40;;
66966;SDS011;53900;51.468;-2.586;2023-12-20T05:59:08;10.10;;;1.80;;
66966;SDS011;53900;51.468;-2.586;2023-12-20T06:01:33;19.85;;;3.35;;
66966;SDS011;53900;51.468;-2.586;2023-12-20T06:03:58;15.38;;;1.90;;
66966;SDS011;53900;51.468;-2.586;2023-12-20T06:06:23;8.07;;;1.73;;
66966;SDS011;53900;51.468;-2.586;2023-12-20T06:08:49;8.32;;;1.90;;
66966;SDS011;53900;51.468;-2.586;2023-12-20T06:11:14;17.23;;;1.95;;
66966;SDS011;53900;51.468;-2.586;2023-12-20T06:13:39;14.43;;;2.20;;
66966;SDS011;53900;51.468;-2.586;2023-12-20T06:16:05;15.95;;;2.17;;
66966;SDS011;53900;51.468;-2.586;2023-12-20T06:18:30;16.35;;;2.30;;
66966;SDS011;53900;51.468;-2.586;2023-12-20T06:20:55;11.07;;;2.15;;
66966;SDS011;53900;51.468;-2.586;2023-12-20T06:23:21;11.30;;;1.70;;
66966;SDS011;53900;51.468;-2.586;2023-12-20T06:25:46;9.93;;;2.03;;
66966;SDS011;53900;51.468;-2.586;2023-12-20T06:28:11;13.60;;;2.13;;
66966;SDS011;53900;51.468;-2.586;2023-12-20T06:30:39;11.75;;;1.80;;
66966;SDS011;53900;51.468;-2.586;2023-12-20T06:33:04;13.25;;;2.22;;
66966;SDS011;53900;51.468;-2.586;2023-12-20T06:35:31;8.73;;;1.13;;
66966;SDS011;53900;51.468;-2.586;2023-12-20T06:37:56;12.82;;;2.10;;
66966;SDS011;53900;51.468;-2.586;2023-12-20T06:40:22;10.55;;;2.35;;
66966;SDS011;53900;51.468;-2.586;2023-12-20T06:42:47;11.95;;;2.40;;
66966;SDS011;53900;51.468;-2.586;2023-12-20T06:45:12;17.83;;;2.08;;
66966;SDS011;53900;51.468;-2.586;2023-12-20T06:47:37;14.98;;;2.70;;
66966;SDS011;53900;51.468;-2.586;2023-12-20T06:50:03;13.02;;;3.28;;
66966;SDS011;53900;51.468;-2.586;2023-12-20T06:52:28;11.73;;;2.10;;
66966;SDS011;53900;51.468;-2.586;2023-12-20T06:54:53;6.57;;;2.15;;
66966;SDS011;53900;51.468;-2.586;2023-12-20T06:57:18;14.88;;;2.55;;
66966;SDS011;53900;51.468;-2.586;2023-12-20T06:59:44;8.30;;;1.67;;
66966;SDS011;53900;51.468;-2.586;2023-12-20T07:02:10;12.50;;;2.15;;
66966;SDS011;53900;51.468;-2.586;2023-12-20T07:04:44;11.07;;;1.88;;
66966;SDS011;53900;51.468;-2.586;2023-12-20T07:07:09;10.25;;;2.03;;
66966;SDS011;53900;51.468;-2.586;2023-12-20T07:09:34;10.35;;;2.33;;
66966;SDS011;53900;51.468;-2.586;2023-12-20T07:11:59;14.68;;;2.85;;
66966;SDS011;53900;51.468;-2.586;2023-12-20T07:14:25;12.50;;;1.60;;
66966;SDS011;53900;51.468;-2.586;2023-12-20T07:16:50;10.88;;;1.48;;
66966;SDS011;53900;51.468;-2.586;2023-12-20T07:19:16;11.73;;;1.95;;
66966;SDS011;53900;51.468;-2.586;2023-12-20T07:21:41;5.53;;;1.55;;
66966;SDS011;53900;51.468;-2.586;2023-12-20T07:24:06;10.73;;;1.50;;
66966;SDS011;53900;51.468;-2.586;2023-12-20T07:26:32;8.20;;;1.40;;
66966;SDS011;53900;51.468;-2.586;2023-12-20T07:28:57;13.18;;;1.90;;
66966;SDS011;53900;51.468;-2.586;2023-12-20T07:31:23;14.07;;;2.13;;
66966;SDS011;53900;51.468;-2.586;2023-12-20T07:33:49;14.32;;;2.00;;
66966;SDS011;53900;51.468;-2.586;2023-12-20T07:36:14;9.25;;;1.73;;
66966;SDS011;53900;51.468;-2.586;2023-12-20T07:38:39;10.77;;;1.67;;
66966;SDS011;53900;51.468;-2.586;2023-12-20T07:41:04;17.42;;;2.28;;
66966;SDS011;53900;51.468;-2.586;2023-12-20T07:43:30;10.88;;;1.90;;
66966;SDS011;53900;51.468;-2.586;2023-12-20T07:45:55;10.88;;;2.00;;
66966;SDS011;53900;51.468;-2.586;2023-12-20T07:48:20;11.93;;;1.75;;
66966;SDS011;53900;51.468;-2.586;2023-12-20T07:50:45;12.95;;;2.00;;
66966;SDS011;53900;51.468;-2.586;2023-12-20T07:53:11;8.23;;;1.88;;
66966;SDS011;53900;51.468;-2.586;2023-12-20T07:55:36;17.45;;;2.38;;
66966;SDS011;53900;51.468;-2.586;2023-12-20T07:58:01;14.00;;;2.25;;
66966;SDS011;53900;51.468;-2.586;2023-12-20T08:00:27;7.97;;;1.98;;
66966;SDS011;53900;51.468;-2.586;2023-12-20T08:02:52;11.45;;;1.83;;
66966;SDS011;53900;51.468;-2.586;2023-12-20T08:05:17;10.50;;;1.98;;
66966;SDS011;53900;51.468;-2.586;2023-12-20T08:07:42;12.40;;;1.90;;
66966;SDS011;53900;51.468;-2.586;2023-12-20T08:10:07;11.38;;;2.83;;
66966;SDS011;53900;51.468;-2.586;2023-12-20T08:12:33;17.77;;;2.65;;
66966;SDS011;53900;51.468;-2.586;2023-12-20T08:14:58;15.65;;;1.75;;
66966;SDS011;53900;51.468;-2.586;2023-12-20T08:17:23;8.15;;;1.45;;
66966;SDS011;53900;51.468;-2.586;2023-12-20T08:19:49;13.70;;;1.73;;
66966;SDS011;53900;51.468;-2.586;2023-12-20T08:22:14;12.60;;;1.63;;
66966;SDS011;53900;51.468;-2.586;2023-12-20T08:24:39;6.80;;;1.83;;
66966;SDS011;53900;51.468;-2.586;2023-12-20T08:27:05;15.95;;;2.28;;
66966;SDS011;53900;51.468;-2.586;2023-12-20T08:29:48;13.15;;;1.85;;
66966;SDS011;53900;51.468;-2.586;2023-12-20T08:32:15;8.23;;;1.33;;
66966;SDS011;53900;51.468;-2.586;2023-12-20T08:34:40;11.73;;;1.73;;
66966;SDS011;53900;51.468;-2.586;2023-12-20T08:37:05;9.88;;;1.60;;
66966;SDS011;53900;51.468;-2.586;2023-12-20T08:39:31;12.88;;;1.63;;
66966;SDS011;53900;51.468;-2.586;2023-12-20T08:41:58;4.70;;;1.40;;
66966;SDS011;53900;51.468;-2.586;2023-12-20T08:44:23;6.47;;;1.20;;
66966;SDS011;53900;51.468;-2.586;2023-12-20T08:46:49;10.55;;;1.50;;
66966;SDS011;53900;51.468;-2.586;2023-12-20T08:49:14;11.40;;;1.50;;
66966;SDS011;53900;51.468;-2.586;2023-12-20T08:51:39;11.52;;;1.80;;
66966;SDS011;53900;51.468;-2.586;2023-12-20T08:54:06;6.32;;;1.38;;
66966;SDS011;53900;51.468;-2.586;2023-12-20T08:56:32;3.97;;;1.02;;
66966;SDS011;53900;51.468;-2.586;2023-12-20T08:58:58;7.97;;;1.10;;
66966;SDS011;53900;51.468;-2.586;2023-12-20T09:01:23;5.55;;;1.35;;
66966;SDS011;53900;51.468;-2.586;2023-12-20T09:03:49;4.43;;;0.90;;
66966;SDS011;53900;51.468;-2.586;2023-12-20T09:06:14;5.95;;;0.98;;
66966;SDS011;53900;51.468;-2.586;2023-12-20T09:08:39;9.15;;;1.58;;
66966;SDS011;53900;51.468;-2.586;2023-12-20T09:11:04;4.18;;;0.95;;
66966;SDS011;53900;51.468;-2.586;2023-12-20T09:13:29;4.65;;;0.95;;
66966;SDS011;53900;51.468;-2.586;2023-12-20T09:15:56;3.45;;;0.82;;
66966;SDS011;53900;51.468;-2.586;2023-12-20T09:18:22;10.30;;;1.40;;
66966;SDS011;53900;51.468;-2.586;2023-12-20T09:20:47;5.95;;;1.00;;
66966;SDS011;53900;51.468;-2.586;2023-12-20T09:23:12;5.25;;;1.10;;
66966;SDS011;53900;51.468;-2.586;2023-12-20T09:25:37;5.45;;;1.30;;
66966;SDS011;53900;51.468;-2.586;2023-12-20T09:28:02;8.00;;;1.60;;
66966;SDS011;53900;51.468;-2.586;2023-12-20T09:30:28;5.30;;;1.33;;
66966;SDS011;53900;51.468;-2.586;2023-12-20T09:32:54;7.72;;;1.35;;
66966;SDS011;53900;51.468;-2.586;2023-12-20T09:35:19;3.47;;;1.13;;
66966;SDS011;53900;51.468;-2.586;2023-12-20T09:37:45;4.93;;;1.17;;
66966;SDS011;53900;51.468;-2.586;2023-12-20T09:40:12;3.03;;;0.82;;
66966;SDS011;53900;51.468;-2.586;2023-12-20T09:42:39;7.97;;;1.05;;
66966;SDS011;53900;51.468;-2.586;2023-12-20T09:45:08;6.55;;;1.33;;
66966;SDS011;53900;51.468;-2.586;2023-12-20T09:47:34;3.38;;;0.93;;
66966;SDS011;53900;51.468;-2.586;2023-12-20T09:50:00;4.63;;;1.17;;
66966;SDS011;53900;51.468;-2.586;2023-12-20T09:52:25;10.45;;;1.40;;
66966;SDS011;53900;51.468;-2.586;2023-12-20T09:54:51;5.63;;;1.25;;
66966;SDS011;53900;51.468;-2.586;2023-12-20T09:57:17;9.60;;;1.85;;
66966;SDS011;53900;51.468;-2.586;2023-12-20T09:59:42;5.45;;;0.98;;
66966;SDS011;53900;51.468;-2.586;2023-12-20T10:02:08;6.97;;;1.20;;
66966;SDS011;53900;51.468;-2.586;2023-12-20T10:04:37;7.95;;;1.75;;
66966;SDS011;53900;51.468;-2.586;2023-12-20T10:07:02;8.43;;;1.90;;
66966;SDS011;53900;51.468;-2.586;2023-12-20T10:09:30;7.68;;;1.20;;
66966;SDS011;53900;51.468;-2.586;2023-12-20T10:11:56;4.47;;;1.02;;
66966;SDS011;53900;51.468;-2.586;2023-12-20T10:14:22;5.72;;;1.63;;
66966;SDS011;53900;51.468;-2.586;2023-12-20T10:16:48;2.33;;;1.00;;
66966;SDS011;53900;51.468;-2.586;2023-12-20T10:19:15;5.60;;;1.17;;
66966;SDS011;53900;51.468;-2.586;2023-12-20T10:21:41;7.05;;;1.33;;
66966;SDS011;53900;51.468;-2.586;2023-12-20T10:24:06;8.60;;;1.35;;
66966;SDS011;53900;51.468;-2.586;2023-12-20T10:26:31;5.55;;;1.02;;
66966;SDS011;53900;51.468;-2.586;2023-12-20T10:29:00;3.15;;;1.10;;
66966;SDS011;53900;51.468;-2.586;2023-12-20T10:31:32;5.07;;;1.13;;
66966;SDS011;53900;51.468;-2.586;2023-12-20T10:33:57;5.30;;;1.10;;
66966;SDS011;53900;51.468;-2.586;2023-12-20T10:36:24;3.03;;;0.90;;
66966;SDS011;53900;51.468;-2.586;2023-12-20T10:38:51;7.90;;;1.48;;
66966;SDS011;53900;51.468;-2.586;2023-12-20T10:41:17;5.70;;;1.52;;
66966;SDS011;53900;51.468;-2.586;2023-12-20T10:43:46;8.37;;;1.80;;
66966;SDS011;53900;51.468;-2.586;2023-12-20T10:46:12;6.15;;;0.93;;
66966;SDS011;53900;51.468;-2.586;2023-12-20T10:48:37;6.20;;;1.30;;
66966;SDS011;53900;51.468;-2.586;2023-12-20T10:51:03;3.50;;;0.98;;
66966;SDS011;53900;51.468;-2.586;2023-12-20T10:53:29;11.32;;;1.65;;
66966;SDS011;53900;51.468;-2.586;2023-12-20T10:55:55;5.93;;;0.98;;
66966;SDS011;53900;51.468;-2.586;2023-12-20T10:58:24;6.93;;;1.30;;
66966;SDS011;53900;51.468;-2.586;2023-12-20T11:00:49;6.50;;;1.20;;
66966;SDS011;53900;51.468;-2.586;2023-12-20T11:03:16;3.30;;;1.00;;
66966;SDS011;53900;51.468;-2.586;2023-12-20T11:05:44;6.07;;;1.50;;
66966;SDS011;53900;51.468;-2.586;2023-12-20T11:10:48;12.60;;;1.75;;
66966;SDS011;53900;51.468;-2.586;2023-12-20T11:13:17;6.60;;;1.60;;
66966;SDS011;53900;51.468;-2.586;2023-12-20T11:15:45;6.07;;;1.52;;
66966;SDS011;53900;51.468;-2.586;2023-12-20T11:18:11;8.30;;;1.83;;
66966;SDS011;53900;51.468;-2.586;2023-12-20T11:20:39;8.07;;;1.40;;
66966;SDS011;53900;51.468;-2.586;2023-12-20T11:23:05;7.22;;;1.60;;
66966;SDS011;53900;51.468;-2.586;2023-12-20T11:25:34;5.78;;;1.33;;
66966;SDS011;53900;51.468;-2.586;2023-12-20T11:28:11;8.27;;;1.50;;
66966;SDS011;53900;51.468;-2.586;2023-12-20T11:30:46;4.20;;;1.20;;
66966;SDS011;53900;51.468;-2.586;2023-12-20T11:33:13;4.88;;;0.98;;
66966;SDS011;53900;51.468;-2.586;2023-12-20T11:35:38;7.38;;;1.60;;
66966;SDS011;53900;51.468;-2.586;2023-12-20T11:38:04;8.07;;;1.40;;
66966;SDS011;53900;51.468;-2.586;2023-12-20T11:40:30;7.85;;;1.20;;
66966;SDS011;53900;51.468;-2.586;2023-12-20T11:42:58;3.90;;;1.13;;
66966;SDS011;53900;51.468;-2.586;2023-12-20T11:45:24;6.40;;;1.60;;
66966;SDS011;53900;51.468;-2.586;2023-12-20T11:47:49;4.97;;;1.15;;
66966;SDS011;53900;51.468;-2.586;2023-12-20T11:50:15;2.55;;;0.90;;
66966;SDS011;53900;51.468;-2.586;2023-12-20T11:52:40;8.88;;;1.40;;
66966;SDS011;53900;51.468;-2.586;2023-12-20T11:55:06;5.07;;;1.17;;
66966;SDS011;53900;51.468;-2.586;2023-12-20T11:57:31;7.25;;;1.13;;
66966;SDS011;53900;51.468;-2.586;2023-12-20T11:59:57;6.63;;;1.25;;
66966;SDS011;53900;51.468;-2.586;2023-12-20T12:02:22;7.40;;;1.30;;
66966;SDS011;53900;51.468;-2.586;2023-12-20T12:04:48;9.05;;;1.83;;
66966;SDS011;53900;51.468;-2.586;2023-12-20T12:07:14;4.80;;;0.80;;
66966;SDS011;53900;51.468;-2.586;2023-12-20T12:09:39;8.77;;;1.45;;
66966;SDS011;53900;51.468;-2.586;2023-12-20T12:12:04;2.75;;;1.00;;
66966;SDS011;53900;51.468;-2.586;2023-12-20T12:14:30;5.22;;;1.13;;
66966;SDS011;53900;51.468;-2.586;2023-12-20T12:16:55;4.00;;;1.20;;
66966;SDS011;53900;51.468;-2.586;2023-12-20T12:19:21;6.75;;;1.23;;
66966;SDS011;53900;51.468;-2.586;2023-12-20T12:21:47;5.88;;;1.23;;
66966;SDS011;53900;51.468;-2.586;2023-12-20T12:24:12;3.30;;;1.02;;
66966;SDS011;53900;51.468;-2.586;2023-12-20T12:26:37;8.88;;;1.77;;
66966;SDS011;53900;51.468;-2.586;2023-12-20T12:29:02;6.55;;;1.50;;
66966;SDS011;53900;51.468;-2.586;2023-12-20T12:31:28;6.47;;;1.23;;
66966;SDS011;53900;51.468;-2.586;2023-12-20T12:33:53;7.32;;;1.60;;
66966;SDS011;53900;51.468;-2.586;2023-12-20T12:36:18;7.25;;;1.55;;
66966;SDS011;53900;51.468;-2.586;2023-12-20T12:38:44;8.52;;;1.50;;
66966;SDS011;53900;51.468;-2.586;2023-12-20T12:41:09;6.75;;;1.45;;
66966;SDS011;53900;51.468;-2.586;2023-12-20T12:43:35;4.60;;;0.88;;
66966;SDS011;53900;51.468;-2.586;2023-12-20T12:46:00;13.40;;;1.67;;
66966;SDS011;53900;51.468;-2.586;2023-12-20T12:48:26;10.10;;;1.40;;
66966;SDS011;53900;51.468;-2.586;2023-12-20T12:50:53;5.30;;;1.20;;
66966;SDS011;53900;51.468;-2.586;2023-12-20T12:53:19;5.32;;;1.55;;
66966;SDS011;53900;51.468;-2.586;2023-12-20T12:55:44;5.15;;;0.95;;
66966;SDS011;53900;51.468;-2.586;2023-12-20T12:58:09;8.70;;;0.90;;
66966;SDS011;53900;51.468;-2.586;2023-12-20T13:00:35;4.32;;;1.25;;
66966;SDS011;53900;51.468;-2.586;2023-12-20T13:03:00;8.50;;;1.40;;
66966;SDS011;53900;51.468;-2.586;2023-12-20T13:05:25;7.07;;;1.40;;
66966;SDS011;53900;51.468;-2.586;2023-12-20T13:07:51;6.50;;;1.15;;
66966;SDS011;53900;51.468;-2.586;2023-12-20T13:10:16;10.18;;;1.67;;
66966;SDS011;53900;51.468;-2.586;2023-12-20T13:12:42;9.73;;;1.50;;
66966;SDS011;53900;51.468;-2.586;2023-12-20T13:15:07;8.50;;;1.60;;
66966;SDS011;53900;51.468;-2.586;2023-12-20T13:17:32;9.15;;;1.20;;
66966;SDS011;53900;51.468;-2.586;2023-12-20T13:19:57;10.65;;;1.48;;
66966;SDS011;53900;51.468;-2.586;2023-12-20T13:22:24;5.65;;;1.38;;
66966;SDS011;53900;51.468;-2.586;2023-12-20T13:24:49;4.60;;;1.17;;
66966;SDS011;53900;51.468;-2.586;2023-12-20T13:27:15;5.22;;;1.13;;
66966;SDS011;53900;51.468;-2.586;2023-12-20T13:29:40;6.30;;;1.38;;
66966;SDS011;53900;51.468;-2.586;2023-12-20T13:32:06;6.80;;;1.40;;
66966;SDS011;53900;51.468;-2.586;2023-12-20T13:34:31;11.27;;;1.52;;
66966;SDS011;53900;51.468;-2.586;2023-12-20T13:36:56;6.75;;;1.17;;
66966;SDS011;53900;51.468;-2.586;2023-12-20T13:39:21;9.65;;;1.60;;
66966;SDS011;53900;51.468;-2.586;2023-12-20T13:41:47;12.32;;;2.08;;
66966;SDS011;53900;51.468;-2.586;2023-12-20T13:44:12;13.07;;;1.73;;
66966;SDS011;53900;51.468;-2.586;2023-12-20T13:46:37;11.00;;;1.52;;
66966;SDS011;53900;51.468;-2.586;2023-12-20T13:49:03;9.23;;;1.80;;
66966;SDS011;53900;51.468;-2.586;2023-12-20T13:51:28;9.95;;;1.35;;
66966;SDS011;53900;51.468;-2.586;2023-12-20T13:53:53;9.73;;;1.60;;
66966;SDS011;53900;51.468;-2.586;2023-12-20T13:56:18;8.88;;;1.38;;
66966;SDS011;53900;51.468;-2.586;2023-12-20T13:58:45;12.68;;;1.63;;
66966;SDS011;53900;51.468;-2.586;2023-12-20T14:01:11;9.70;;;1.70;;
66966;SDS011;53900;51.468;-2.586;2023-12-20T14:03:36;10.77;;;1.50;;
66966;SDS011;53900;51.468;-2.586;2023-12-20T14:06:02;8.07;;;1.60;;
66966;SDS011;53900;51.468;-2.586;2023-12-20T14:08:27;8.85;;;1.70;;
66966;SDS011;53900;51.468;-2.586;2023-12-20T14:10:52;12.45;;;1.50;;
66966;SDS011;53900;51.468;-2.586;2023-12-20T14:13:18;8.10;;;1.60;;
66966;SDS011;53900;51.468;-2.586;2023-12-20T14:15:43;6.10;;;1.20;;
66966;SDS011;53900;51.468;-2.586;2023-12-20T14:18:08;11.57;;;1.48;;